sensor_id;sensor_type;location;lat;lon;timestamp;P1;durP1;ratioP1;P2;durP2;ratioP2
7171;SDS011;3627;46.544;14.944;2022-07-29T05:16:04;4.45;;;4.05;;
7171;SDS011;3627;46.544;14.944;2022-07-29T05:28:16;8.23;;;6.10;;
7171;SDS011;3627;46.544;14.944;2022-07-29T05:30:42;5.90;;;5.40;;
7171;SDS011;3627;46.544;14.944;2022-07-29T05:33:11;7.75;;;5.03;;
7171;SDS011;3627;46.544;14.944;2022-07-29T05:35:37;7.72;;;4.50;;
7171;SDS011;3627;46.544;14.944;2022-07-29T05:38:03;7.35;;;4.30;;
7171;SDS011;3627;46.544;14.944;2022-07-29T05:40:30;6.35;;;3.90;;
7171;SDS011;3627;46.544;14.944;2022-07-29T05:42:57;4.30;;;3.88;;
7171;SDS011;3627;46.544;14.944;2022-07-29T05:45:23;5.07;;;3.80;;
7171;SDS011;3627;46.544;14.944;2022-07-29T05:47:50;5.20;;;4.18;;
7171;SDS011;3627;46.544;14.944;2022-07-29T05:50:18;3.83;;;3.47;;
7171;SDS011;3627;46.544;14.944;2022-07-29T05:52:44;5.25;;;3.40;;
7171;SDS011;3627;46.544;14.944;2022-07-29T05:55:10;4.72;;;3.42;;
7171;SDS011;3627;46.544;14.944;2022-07-29T05:57:37;6.82;;;3.53;;
7171;SDS011;3627;46.544;14.944;2022-07-29T06:00:04;5.38;;;3.83;;
7171;SDS011;3627;46.544;14.944;2022-07-29T06:02:30;6.40;;;4.00;;
7171;SDS011;3627;46.544;14.944;2022-07-29T06:04:57;3.67;;;3.38;;
7171;SDS011;3627;46.544;14.944;2022-07-29T06:07:25;5.20;;;3.20;;
7171;SDS011;3627;46.544;14.944;2022-07-29T06:09:51;3.17;;;2.83;;
7171;SDS011;3627;46.544;14.944;2022-07-29T06:12:17;4.43;;;3.10;;
7171;SDS011;3627;46.544;14.944;2022-07-29T09:37:46;3.40;;;2.95;;
7171;SDS011;3627;46.544;14.944;2022-07-29T09:40:13;4.68;;;3.35;;
7171;SDS011;3627;46.544;14.944;2022-07-29T09:42:41;4.60;;;2.88;;
7171;SDS011;3627;46.544;14.944;2022-07-29T09:45:08;3.28;;;3.00;;
7171;SDS011;3627;46.544;14.944;2022-07-29T09:47:42;3.35;;;3.05;;
7171;SDS011;3627;46.544;14.944;2022-07-29T09:50:10;4.55;;;3.15;;
7171;SDS011;3627;46.544;14.944;2022-07-29T09:52:44;3.42;;;2.78;;
7171;SDS011;3627;46.544;14.944;2022-07-29T09:55:12;3.35;;;3.00;;
7171;SDS011;3627;46.544;14.944;2022-07-29T09:57:39;5.50;;;3.40;;
7171;SDS011;3627;46.544;14.944;2022-07-29T10:00:06;5.03;;;3.20;;
7171;SDS011;3627;46.544;14.944;2022-07-29T10:02:34;6.00;;;3.38;;
7171;SDS011;3627;46.544;14.944;2022-07-29T10:05:02;4.57;;;3.45;;
7171;SDS011;3627;46.544;14.944;2022-07-29T10:07:42;4.05;;;3.38;;
7171;SDS011;3627;46.544;14.944;2022-07-29T10:10:09;6.22;;;3.03;;
7171;SDS011;3627;46.544;14.944;2022-07-29T10:12:40;3.75;;;3.40;;
7171;SDS011;3627;46.544;14.944;2022-07-29T10:15:14;4.60;;;3.47;;
7171;SDS011;3627;46.544;14.944;2022-07-29T10:17:41;5.32;;;3.60;;
7171;SDS011;3627;46.544;14.944;2022-07-29T10:20:08;4.00;;;3.50;;
7171;SDS011;3627;46.544;14.944;2022-07-29T10:22:34;3.65;;;3.33;;
7171;SDS011;3627;46.544;14.944;2022-07-29T10:25:01;5.07;;;3.50;;
7171;SDS011;3627;46.544;14.944;2022-07-29T10:27:27;5.20;;;3.38;;
7171;SDS011;3627;46.544;14.944;2022-07-29T10:29:55;4.22;;;3.83;;
7171;SDS011;3627;46.544;14.944;2022-07-29T10:32:25;3.95;;;3.55;;
7171;SDS011;3627;46.544;14.944;2022-07-29T10:34:57;4.95;;;3.50;;
7171;SDS011;3627;46.544;14.944;2022-07-29T10:37:28;5.20;;;3.70;;
7171;SDS011;3627;46.544;14.944;2022-07-29T10:39:58;5.43;;;3.83;;
7171;SDS011;3627;46.544;14.944;2022-07-29T10:42:48;4.63;;;4.15;;
7171;SDS011;3627;46.544;14.944;2022-07-29T10:45:17;6.72;;;4.68;;
7171;SDS011;3627;46.544;14.944;2022-07-29T10:47:43;9.70;;;3.28;;
7171;SDS011;3627;46.544;14.944;2022-07-29T10:50:11;4.15;;;3.58;;
7171;SDS011;3627;46.544;14.944;2022-07-29T10:52:53;5.05;;;3.50;;
7171;SDS011;3627;46.544;14.944;2022-07-29T10:58:11;4.18;;;3.65;;
7171;SDS011;3627;46.544;14.944;2022-07-29T11:00:39;4.25;;;3.53;;
7171;SDS011;3627;46.544;14.944;2022-07-29T11:03:05;6.32;;;3.97;;
7171;SDS011;3627;46.544;14.944;2022-07-29T11:08:20;6.25;;;4.07;;
7171;SDS011;3627;46.544;14.944;2022-07-29T11:10:48;4.55;;;3.65;;
7171;SDS011;3627;46.544;14.944;2022-07-29T11:16:01;5.07;;;4.00;;
7171;SDS011;3627;46.544;14.944;2022-07-29T11:18:28;4.05;;;3.67;;
7171;SDS011;3627;46.544;14.944;2022-07-29T11:20:54;3.90;;;3.50;;
7171;SDS011;3627;46.544;14.944;2022-07-29T11:23:21;4.10;;;3.15;;
7171;SDS011;3627;46.544;14.944;2022-07-29T11:28:34;3.72;;;3.42;;
7171;SDS011;3627;46.544;14.944;2022-07-29T11:31:05;3.92;;;3.40;;
7171;SDS011;3627;46.544;14.944;2022-07-29T11:33:33;3.83;;;3.30;;
7171;SDS011;3627;46.544;14.944;2022-07-29T11:36:09;5.13;;;3.85;;
7171;SDS011;3627;46.544;14.944;2022-07-29T11:38:36;5.97;;;3.63;;
7171;SDS011;3627;46.544;14.944;2022-07-29T11:41:21;5.95;;;3.70;;
7171;SDS011;3627;46.544;14.944;2022-07-29T11:43:49;4.47;;;3.65;;
7171;SDS011;3627;46.544;14.944;2022-07-29T11:46:17;5.72;;;3.90;;
7171;SDS011;3627;46.544;14.944;2022-07-29T11:48:44;3.97;;;3.58;;
7171;SDS011;3627;46.544;14.944;2022-07-29T11:51:10;3.95;;;3.55;;
7171;SDS011;3627;46.544;14.944;2022-07-29T11:53:37;4.93;;;3.83;;
7171;SDS011;3627;46.544;14.944;2022-07-29T11:56:05;4.32;;;3.70;;
7171;SDS011;3627;46.544;14.944;2022-07-29T11:58:33;4.28;;;3.88;;
7171;SDS011;3627;46.544;14.944;2022-07-29T12:01:02;4.38;;;3.97;;
7171;SDS011;3627;46.544;14.944;2022-07-29T12:03:30;4.40;;;4.00;;
7171;SDS011;3627;46.544;14.944;2022-07-29T12:05:57;4.13;;;3.83;;
7171;SDS011;3627;46.544;14.944;2022-07-29T12:08:23;6.32;;;3.60;;
7171;SDS011;3627;46.544;14.944;2022-07-29T12:10:51;4.30;;;3.70;;
7171;SDS011;3627;46.544;14.944;2022-07-29T12:13:18;4.72;;;3.75;;
7171;SDS011;3627;46.544;14.944;2022-07-29T12:15:51;4.13;;;3.80;;
7171;SDS011;3627;46.544;14.944;2022-07-29T12:18:19;5.18;;;4.20;;
7171;SDS011;3627;46.544;14.944;2022-07-29T12:20:47;5.95;;;3.95;;
7171;SDS011;3627;46.544;14.944;2022-07-29T12:23:14;4.90;;;3.63;;
7171;SDS011;3627;46.544;14.944;2022-07-29T12:25:42;4.55;;;4.07;;
7171;SDS011;3627;46.544;14.944;2022-07-29T12:28:09;4.25;;;3.75;;
7171;SDS011;3627;46.544;14.944;2022-07-29T12:30:40;6.68;;;3.67;;
7171;SDS011;3627;46.544;14.944;2022-07-29T12:33:11;4.13;;;3.72;;
7171;SDS011;3627;46.544;14.944;2022-07-29T12:35:37;5.25;;;4.07;;
7171;SDS011;3627;46.544;14.944;2022-07-29T12:38:05;4.38;;;3.85;;
7171;SDS011;3627;46.544;14.944;2022-07-29T12:40:32;5.45;;;3.92;;
7171;SDS011;3627;46.544;14.944;2022-07-29T12:43:05;4.53;;;3.65;;
7171;SDS011;3627;46.544;14.944;2022-07-29T12:45:32;3.80;;;3.50;;
7171;SDS011;3627;46.544;14.944;2022-07-29T12:47:58;4.05;;;3.65;;
7171;SDS011;3627;46.544;14.944;2022-07-29T12:50:25;3.85;;;3.40;;
7171;SDS011;3627;46.544;14.944;2022-07-29T12:52:51;3.55;;;3.25;;
7171;SDS011;3627;46.544;14.944;2022-07-29T12:58:01;5.25;;;3.70;;
7171;SDS011;3627;46.544;14.944;2022-07-29T13:00:27;7.35;;;4.20;;
7171;SDS011;3627;46.544;14.944;2022-07-29T13:02:54;5.50;;;3.70;;
7171;SDS011;3627;46.544;14.944;2022-07-29T13:05:21;6.88;;;4.00;;
7171;SDS011;3627;46.544;14.944;2022-07-29T13:07:48;3.83;;;3.50;;
7171;SDS011;3627;46.544;14.944;2022-07-29T13:10:16;3.85;;;3.55;;
7171;SDS011;3627;46.544;14.944;2022-07-29T13:13:02;4.40;;;4.00;;
7171;SDS011;3627;46.544;14.944;2022-07-29T13:15:30;4.47;;;4.07;;
7171;SDS011;3627;46.544;14.944;2022-07-29T13:17:56;5.53;;;3.97;;
7171;SDS011;3627;46.544;14.944;2022-07-29T13:20:24;6.97;;;4.03;;
7171;SDS011;3627;46.544;14.944;2022-07-29T13:22:52;7.10;;;4.37;;
7171;SDS011;3627;46.544;14.944;2022-07-29T13:25:23;6.80;;;3.97;;
7171;SDS011;3627;46.544;14.944;2022-07-29T13:27:50;6.13;;;3.70;;
7171;SDS011;3627;46.544;14.944;2022-07-29T13:30:18;6.60;;;4.32;;
7171;SDS011;3627;46.544;14.944;2022-07-29T13:32:44;5.93;;;3.70;;
7171;SDS011;3627;46.544;14.944;2022-07-29T13:35:11;4.32;;;3.90;;
7171;SDS011;3627;46.544;14.944;2022-07-29T13:37:38;6.13;;;3.92;;
7171;SDS011;3627;46.544;14.944;2022-07-29T13:40:05;4.70;;;4.30;;
7171;SDS011;3627;46.544;14.944;2022-07-29T13:42:32;6.15;;;4.55;;
7171;SDS011;3627;46.544;14.944;2022-07-29T13:44:58;6.05;;;4.18;;
7171;SDS011;3627;46.544;14.944;2022-07-29T13:47:26;4.20;;;3.80;;
7171;SDS011;3627;46.544;14.944;2022-07-29T13:49:53;7.55;;;3.78;;
7171;SDS011;3627;46.544;14.944;2022-07-29T13:52:20;4.90;;;3.83;;
7171;SDS011;3627;46.544;14.944;2022-07-29T13:54:46;5.00;;;4.07;;
7171;SDS011;3627;46.544;14.944;2022-07-29T13:57:13;4.45;;;3.90;;
7171;SDS011;3627;46.544;14.944;2022-07-29T13:59:40;6.05;;;4.40;;
7171;SDS011;3627;46.544;14.944;2022-07-29T14:02:07;5.07;;;3.72;;
7171;SDS011;3627;46.544;14.944;2022-07-29T14:04:35;4.65;;;4.07;;
7171;SDS011;3627;46.544;14.944;2022-07-29T14:07:01;4.05;;;3.50;;
7171;SDS011;3627;46.544;14.944;2022-07-29T14:09:28;5.28;;;3.88;;
7171;SDS011;3627;46.544;14.944;2022-07-29T14:11:54;4.63;;;4.20;;
7171;SDS011;3627;46.544;14.944;2022-07-29T14:14:21;4.20;;;3.80;;
7171;SDS011;3627;46.544;14.944;2022-07-29T14:16:47;5.88;;;4.25;;
7171;SDS011;3627;46.544;14.944;2022-07-29T14:19:14;4.45;;;4.05;;
7171;SDS011;3627;46.544;14.944;2022-07-29T14:21:41;4.30;;;3.90;;
7171;SDS011;3627;46.544;14.944;2022-07-29T14:24:08;5.65;;;3.85;;
7171;SDS011;3627;46.544;14.944;2022-07-29T14:26:34;6.38;;;4.00;;
7171;SDS011;3627;46.544;14.944;2022-07-29T14:29:01;4.93;;;4.13;;
7171;SDS011;3627;46.544;14.944;2022-07-29T14:31:27;4.25;;;3.85;;
7171;SDS011;3627;46.544;14.944;2022-07-29T14:33:53;5.70;;;4.20;;
7171;SDS011;3627;46.544;14.944;2022-07-29T14:36:20;6.18;;;4.75;;
7171;SDS011;3627;46.544;14.944;2022-07-29T14:38:47;5.90;;;4.30;;
7171;SDS011;3627;46.544;14.944;2022-07-29T14:41:14;5.93;;;4.10;;
7171;SDS011;3627;46.544;14.944;2022-07-29T14:43:41;5.57;;;3.88;;
7171;SDS011;3627;46.544;14.944;2022-07-29T14:46:08;5.90;;;4.25;;
7171;SDS011;3627;46.544;14.944;2022-07-29T14:48:34;5.97;;;4.22;;
7171;SDS011;3627;46.544;14.944;2022-07-29T14:51:01;4.22;;;3.80;;
7171;SDS011;3627;46.544;14.944;2022-07-29T14:53:27;5.22;;;3.60;;
7171;SDS011;3627;46.544;14.944;2022-07-29T14:55:57;4.90;;;3.83;;
7171;SDS011;3627;46.544;14.944;2022-07-29T14:58:23;3.88;;;3.50;;
7171;SDS011;3627;46.544;14.944;2022-07-29T15:00:50;5.05;;;4.03;;
7171;SDS011;3627;46.544;14.944;2022-07-29T15:03:17;4.57;;;3.97;;
7171;SDS011;3627;46.544;14.944;2022-07-29T15:05:43;5.18;;;3.75;;
7171;SDS011;3627;46.544;14.944;2022-07-29T15:08:10;5.20;;;4.28;;
7171;SDS011;3627;46.544;14.944;2022-07-29T15:10:36;5.38;;;3.85;;
7171;SDS011;3627;46.544;14.944;2022-07-29T15:13:04;4.78;;;3.97;;
7171;SDS011;3627;46.544;14.944;2022-07-29T15:15:31;6.15;;;4.45;;
7171;SDS011;3627;46.544;14.944;2022-07-29T15:17:57;4.50;;;4.10;;
7171;SDS011;3627;46.544;14.944;2022-07-29T15:20:24;7.32;;;5.07;;
7171;SDS011;3627;46.544;14.944;2022-07-29T15:22:52;5.45;;;4.68;;
7171;SDS011;3627;46.544;14.944;2022-07-29T15:25:20;4.18;;;3.78;;
7171;SDS011;3627;46.544;14.944;2022-07-29T15:27:46;5.32;;;4.18;;
7171;SDS011;3627;46.544;14.944;2022-07-29T15:30:14;5.10;;;4.13;;
7171;SDS011;3627;46.544;14.944;2022-07-29T15:32:42;7.32;;;4.20;;
7171;SDS011;3627;46.544;14.944;2022-07-29T15:35:08;4.03;;;3.65;;
7171;SDS011;3627;46.544;14.944;2022-07-29T15:37:35;4.82;;;4.35;;
7171;SDS011;3627;46.544;14.944;2022-07-29T15:40:01;5.85;;;4.40;;
7171;SDS011;3627;46.544;14.944;2022-07-29T15:42:28;5.25;;;4.00;;
7171;SDS011;3627;46.544;14.944;2022-07-29T15:44:54;7.97;;;4.35;;
7171;SDS011;3627;46.544;14.944;2022-07-29T15:47:23;4.55;;;4.15;;
7171;SDS011;3627;46.544;14.944;2022-07-29T15:49:49;5.47;;;3.97;;
7171;SDS011;3627;46.544;14.944;2022-07-29T15:52:16;4.60;;;3.90;;
7171;SDS011;3627;46.544;14.944;2022-07-29T15:54:43;7.97;;;4.40;;
7171;SDS011;3627;46.544;14.944;2022-07-29T15:57:09;5.50;;;4.20;;
7171;SDS011;3627;46.544;14.944;2022-07-29T15:59:37;7.25;;;4.72;;
7171;SDS011;3627;46.544;14.944;2022-07-29T16:02:03;4.80;;;4.30;;
7171;SDS011;3627;46.544;14.944;2022-07-29T16:04:32;5.18;;;4.68;;
7171;SDS011;3627;46.544;14.944;2022-07-29T16:06:58;5.20;;;4.70;;
7171;SDS011;3627;46.544;14.944;2022-07-29T16:09:25;4.68;;;4.18;;
7171;SDS011;3627;46.544;14.944;2022-07-29T16:11:52;7.57;;;5.00;;
7171;SDS011;3627;46.544;14.944;2022-07-29T16:14:18;6.38;;;4.70;;
7171;SDS011;3627;46.544;14.944;2022-07-29T16:16:45;6.05;;;4.10;;
7171;SDS011;3627;46.544;14.944;2022-07-29T16:19:11;8.07;;;5.55;;
7171;SDS011;3627;46.544;14.944;2022-07-29T16:21:40;6.18;;;4.78;;
7171;SDS011;3627;46.544;14.944;2022-07-29T16:24:06;5.15;;;4.20;;
7171;SDS011;3627;46.544;14.944;2022-07-29T16:26:33;5.20;;;4.60;;
7171;SDS011;3627;46.544;14.944;2022-07-29T16:28:59;7.00;;;4.55;;
7171;SDS011;3627;46.544;14.944;2022-07-29T16:31:26;6.38;;;4.88;;
7171;SDS011;3627;46.544;14.944;2022-07-29T16:33:53;8.20;;;4.82;;
7171;SDS011;3627;46.544;14.944;2022-07-29T16:36:20;7.70;;;4.80;;
7171;SDS011;3627;46.544;14.944;2022-07-29T16:38:48;7.43;;;5.03;;
7171;SDS011;3627;46.544;14.944;2022-07-29T16:41:14;4.90;;;4.47;;
7171;SDS011;3627;46.544;14.944;2022-07-29T16:43:40;5.00;;;4.40;;
7171;SDS011;3627;46.544;14.944;2022-07-29T16:46:07;4.85;;;4.28;;
7171;SDS011;3627;46.544;14.944;2022-07-29T16:48:33;6.43;;;4.18;;
7171;SDS011;3627;46.544;14.944;2022-07-29T16:51:00;5.70;;;4.30;;
7171;SDS011;3627;46.544;14.944;2022-07-29T16:53:27;5.03;;;4.57;;
7171;SDS011;3627;46.544;14.944;2022-07-29T16:55:55;4.05;;;3.67;;
7171;SDS011;3627;46.544;14.944;2022-07-29T16:58:21;5.60;;;5.00;;
7171;SDS011;3627;46.544;14.944;2022-07-29T17:00:47;7.93;;;4.45;;
7171;SDS011;3627;46.544;14.944;2022-07-29T17:03:14;4.88;;;4.22;;
7171;SDS011;3627;46.544;14.944;2022-07-29T17:05:40;5.35;;;4.85;;
7171;SDS011;3627;46.544;14.944;2022-07-29T17:08:06;5.25;;;4.80;;
7171;SDS011;3627;46.544;14.944;2022-07-29T17:10:33;6.55;;;4.90;;
7171;SDS011;3627;46.544;14.944;2022-07-29T17:13:01;5.95;;;5.18;;
7171;SDS011;3627;46.544;14.944;2022-07-29T17:15:27;6.63;;;4.95;;
7171;SDS011;3627;46.544;14.944;2022-07-29T17:17:53;11.68;;;5.40;;
7171;SDS011;3627;46.544;14.944;2022-07-29T17:20:20;6.53;;;4.70;;
7171;SDS011;3627;46.544;14.944;2022-07-29T17:22:46;7.03;;;5.13;;
7171;SDS011;3627;46.544;14.944;2022-07-29T17:25:13;5.30;;;4.65;;
7171;SDS011;3627;46.544;14.944;2022-07-29T17:27:39;7.03;;;5.18;;
7171;SDS011;3627;46.544;14.944;2022-07-29T17:30:08;10.07;;;4.90;;
7171;SDS011;3627;46.544;14.944;2022-07-29T17:32:35;6.40;;;4.75;;
7171;SDS011;3627;46.544;14.944;2022-07-29T17:35:03;5.82;;;4.65;;
7171;SDS011;3627;46.544;14.944;2022-07-29T17:37:49;5.78;;;5.05;;
7171;SDS011;3627;46.544;14.944;2022-07-29T17:40:16;6.28;;;5.18;;
7171;SDS011;3627;46.544;14.944;2022-07-29T17:42:42;5.25;;;4.75;;
7171;SDS011;3627;46.544;14.944;2022-07-29T17:45:10;6.55;;;5.18;;
7171;SDS011;3627;46.544;14.944;2022-07-29T17:47:36;4.80;;;4.38;;
7171;SDS011;3627;46.544;14.944;2022-07-29T17:50:03;6.72;;;4.65;;
7171;SDS011;3627;46.544;14.944;2022-07-29T17:52:30;6.40;;;4.40;;
7171;SDS011;3627;46.544;14.944;2022-07-29T17:54:56;10.18;;;5.10;;
7171;SDS011;3627;46.544;14.944;2022-07-29T17:57:22;6.70;;;4.85;;
7171;SDS011;3627;46.544;14.944;2022-07-29T17:59:49;7.47;;;5.10;;
7171;SDS011;3627;46.544;14.944;2022-07-29T18:02:17;6.10;;;4.95;;
7171;SDS011;3627;46.544;14.944;2022-07-29T18:04:43;6.72;;;5.13;;
7171;SDS011;3627;46.544;14.944;2022-07-29T18:07:10;11.73;;;7.75;;
7171;SDS011;3627;46.544;14.944;2022-07-29T18:09:36;7.75;;;6.53;;
7171;SDS011;3627;46.544;14.944;2022-07-29T18:12:03;7.82;;;6.40;;
7171;SDS011;3627;46.544;14.944;2022-07-29T18:14:29;5.95;;;5.40;;
7171;SDS011;3627;46.544;14.944;2022-07-29T18:16:56;5.78;;;5.10;;
7171;SDS011;3627;46.544;14.944;2022-07-29T18:19:24;7.82;;;5.03;;
7171;SDS011;3627;46.544;14.944;2022-07-29T18:21:50;6.78;;;5.03;;
7171;SDS011;3627;46.544;14.944;2022-07-29T18:24:16;8.98;;;4.90;;
7171;SDS011;3627;46.544;14.944;2022-07-29T18:26:43;5.35;;;4.43;;
7171;SDS011;3627;46.544;14.944;2022-07-29T18:29:09;7.35;;;4.70;;
7171;SDS011;3627;46.544;14.944;2022-07-29T18:31:36;7.15;;;4.60;;
7171;SDS011;3627;46.544;14.944;2022-07-29T18:34:05;5.78;;;4.65;;
7171;SDS011;3627;46.544;14.944;2022-07-29T18:36:32;7.78;;;3.95;;
7171;SDS011;3627;46.544;14.944;2022-07-29T18:38:59;4.57;;;3.97;;
7171;SDS011;3627;46.544;14.944;2022-07-29T18:41:25;5.05;;;4.55;;
7171;SDS011;3627;46.544;14.944;2022-07-29T18:43:51;6.10;;;3.70;;
7171;SDS011;3627;46.544;14.944;2022-07-29T18:46:18;4.72;;;3.83;;
7171;SDS011;3627;46.544;14.944;2022-07-29T18:48:44;4.05;;;3.65;;
7171;SDS011;3627;46.544;14.944;2022-07-29T18:51:11;7.55;;;4.20;;
7171;SDS011;3627;46.544;14.944;2022-07-29T18:53:38;4.70;;;3.97;;
7171;SDS011;3627;46.544;14.944;2022-07-29T18:56:05;6.53;;;4.47;;
7171;SDS011;3627;46.544;14.944;2022-07-29T18:58:31;5.95;;;4.50;;
7171;SDS011;3627;46.544;14.944;2022-07-29T19:00:58;5.32;;;4.80;;
7171;SDS011;3627;46.544;14.944;2022-07-29T19:03:24;5.53;;;4.30;;
7171;SDS011;3627;46.544;14.944;2022-07-29T19:05:51;4.65;;;3.85;;
7171;SDS011;3627;46.544;14.944;2022-07-29T19:08:17;4.72;;;4.07;;
7171;SDS011;3627;46.544;14.944;2022-07-29T19:10:45;4.55;;;3.90;;
7171;SDS011;3627;46.544;14.944;2022-07-29T19:13:11;6.35;;;4.45;;
7171;SDS011;3627;46.544;14.944;2022-07-29T19:15:38;4.40;;;4.00;;
7171;SDS011;3627;46.544;14.944;2022-07-29T19:18:04;4.68;;;4.22;;
7171;SDS011;3627;46.544;14.944;2022-07-29T19:20:31;5.53;;;4.07;;
7171;SDS011;3627;46.544;14.944;2022-07-29T19:22:57;6.88;;;4.10;;
7171;SDS011;3627;46.544;14.944;2022-07-29T19:25:24;4.45;;;4.05;;
7171;SDS011;3627;46.544;14.944;2022-07-29T19:27:52;4.65;;;4.10;;
7171;SDS011;3627;46.544;14.944;2022-07-29T19:30:18;4.95;;;3.78;;
7171;SDS011;3627;46.544;14.944;2022-07-29T19:32:45;4.28;;;3.78;;
7171;SDS011;3627;46.544;14.944;2022-07-29T19:35:11;4.15;;;3.75;;
7171;SDS011;3627;46.544;14.944;2022-07-29T19:37:52;4.38;;;3.90;;
7171;SDS011;3627;46.544;14.944;2022-07-29T19:40:19;4.55;;;3.90;;
7171;SDS011;3627;46.544;14.944;2022-07-29T19:42:45;5.10;;;4.00;;
7171;SDS011;3627;46.544;14.944;2022-07-29T19:45:16;5.15;;;3.70;;
7171;SDS011;3627;46.544;14.944;2022-07-29T19:47:43;4.43;;;4.03;;
7171;SDS011;3627;46.544;14.944;2022-07-29T19:50:09;6.53;;;5.35;;
7171;SDS011;3627;46.544;14.944;2022-07-29T19:52:36;4.55;;;4.15;;
7171;SDS011;3627;46.544;14.944;2022-07-29T19:55:02;5.20;;;4.68;;
7171;SDS011;3627;46.544;14.944;2022-07-29T19:57:29;5.20;;;4.45;;
7171;SDS011;3627;46.544;14.944;2022-07-29T19:59:55;4.20;;;3.80;;
7171;SDS011;3627;46.544;14.944;2022-07-29T20:02:23;4.20;;;3.80;;
7171;SDS011;3627;46.544;14.944;2022-07-29T20:04:49;4.70;;;4.22;;
7171;SDS011;3627;46.544;14.944;2022-07-29T20:07:16;4.43;;;4.03;;
7171;SDS011;3627;46.544;14.944;2022-07-29T20:09:42;3.80;;;3.50;;
7171;SDS011;3627;46.544;14.944;2022-07-29T20:12:10;4.43;;;3.97;;
7171;SDS011;3627;46.544;14.944;2022-07-29T20:14:37;4.75;;;4.22;;
7171;SDS011;3627;46.544;14.944;2022-07-29T20:17:03;4.28;;;3.85;;
7171;SDS011;3627;46.544;14.944;2022-07-29T20:19:31;4.10;;;3.72;;
7171;SDS011;3627;46.544;14.944;2022-07-29T20:21:57;4.50;;;4.10;;
7171;SDS011;3627;46.544;14.944;2022-07-29T20:24:24;6.38;;;4.20;;
7171;SDS011;3627;46.544;14.944;2022-07-29T20:26:50;4.93;;;4.20;;
7171;SDS011;3627;46.544;14.944;2022-07-29T20:29:17;4.50;;;4.10;;
7171;SDS011;3627;46.544;14.944;2022-07-29T20:31:43;4.80;;;4.30;;
7171;SDS011;3627;46.544;14.944;2022-07-29T20:34:10;7.35;;;4.60;;
7171;SDS011;3627;46.544;14.944;2022-07-29T20:36:39;7.88;;;4.95;;
7171;SDS011;3627;46.544;14.944;2022-07-29T20:39:06;6.30;;;4.82;;
7171;SDS011;3627;46.544;14.944;2022-07-29T20:41:32;4.70;;;4.30;;
7171;SDS011;3627;46.544;14.944;2022-07-29T20:43:59;4.95;;;4.38;;
7171;SDS011;3627;46.544;14.944;2022-07-29T20:46:26;5.20;;;4.35;;
7171;SDS011;3627;46.544;14.944;2022-07-29T20:48:52;6.60;;;4.60;;
7171;SDS011;3627;46.544;14.944;2022-07-29T20:51:18;5.32;;;4.82;;
7171;SDS011;3627;46.544;14.944;2022-07-29T20:53:46;4.97;;;4.55;;
7171;SDS011;3627;46.544;14.944;2022-07-29T20:56:13;6.10;;;4.90;;
7171;SDS011;3627;46.544;14.944;2022-07-29T20:58:40;5.00;;;4.50;;
7171;SDS011;3627;46.544;14.944;2022-07-29T21:01:07;5.45;;;4.95;;
7171;SDS011;3627;46.544;14.944;2022-07-29T21:03:34;4.85;;;4.40;;
7171;SDS011;3627;46.544;14.944;2022-07-29T21:06:01;4.32;;;3.92;;
7171;SDS011;3627;46.544;14.944;2022-07-29T21:08:27;4.50;;;4.10;;
7171;SDS011;3627;46.544;14.944;2022-07-29T21:10:55;4.60;;;4.20;;
7171;SDS011;3627;46.544;14.944;2022-07-29T21:13:21;5.15;;;4.70;;
7171;SDS011;3627;46.544;14.944;2022-07-29T21:15:49;4.82;;;4.32;;
7171;SDS011;3627;46.544;14.944;2022-07-29T21:18:16;4.93;;;4.50;;
7171;SDS011;3627;46.544;14.944;2022-07-29T21:20:52;5.97;;;5.38;;
7171;SDS011;3627;46.544;14.944;2022-07-29T21:23:18;5.65;;;4.50;;
